Time;durP1;ratioP1;P1;durP2;ratioP2;P2;SDS_P1;SDS_P2;PMS_P1;PMS_P2;Temp;Humidity;BMP_temperature;BMP_pressure;BME280_temperature;BME280_humidity;BME280_pressure;Samples;Min_cycle;Max_cycle;Signal;HPM_P1;HPM_P2
2022/05/23 00:00:22;;;;;;;12.30;8.90;;;21.20;99.90;;;;;;5095127;28;20205;-74
2022/05/23 00:02:50;;;;;;;12.90;7.28;;;21.20;99.90;;;;;;5090732;28;20707;-75
2022/05/23 00:05:17;;;;;;;11.35;7.15;;;21.20;99.90;;;;;;5074207;28;20247;-74
2022/05/23 00:07:47;;;;;;;13.45;7.70;;;21.30;99.90;;;;;;5074153;28;20287;-75
2022/05/23 00:10:17;;;;;;;11.07;7.90;;;21.30;99.90;;;;;;5074528;28;20202;-75
2022/05/23 00:12:45;;;;;;;10.25;8.10;;;21.20;99.90;;;;;;5073963;28;20206;-75
2022/05/23 00:15:13;;;;;;;12.85;8.27;;;21.20;99.90;;;;;;5074357;28;20202;-77
2022/05/23 00:17:40;;;;;;;12.70;8.13;;;21.20;99.90;;;;;;5073903;28;20256;-74
2022/05/23 00:20:10;;;;;;;10.18;7.30;;;21.10;99.90;;;;;;5074199;28;20247;-75
2022/05/23 00:22:38;;;;;;;9.15;7.50;;;20.90;99.90;;;;;;5073886;28;20202;-77
2022/05/23 00:25:07;;;;;;;11.57;7.40;;;21.00;99.90;;;;;;5074152;28;20210;-74
2022/05/23 00:27:37;;;;;;;9.10;7.03;;;21.00;99.90;;;;;;5073581;28;20275;-67
2022/05/23 00:30:06;;;;;;;14.32;7.25;;;20.80;99.90;;;;;;5074093;28;20287;-81
2022/05/23 00:35:21;;;;;;;13.18;6.40;;;20.90;99.90;;;;;;5074431;28;20205;-84
2022/05/23 00:37:50;;;;;;;10.57;6.80;;;20.80;99.90;;;;;;5073780;28;20202;-81
2022/05/23 00:40:29;;;;;;;13.48;6.97;;;20.70;99.90;;;;;;5073842;28;20198;-78
2022/05/23 00:43:14;;;;;;;11.75;7.95;;;20.90;99.90;;;;;;5073976;28;20205;-80
2022/05/23 00:45:46;;;;;;;10.00;6.50;;;21.00;99.90;;;;;;5073596;28;20217;-78
2022/05/23 00:48:15;;;;;;;8.98;7.45;;;21.00;99.90;;;;;;5073778;28;20252;-81
2022/05/23 00:50:46;;;;;;;11.85;6.90;;;21.00;99.90;;;;;;5072146;28;20210;-81
2022/05/23 00:53:14;;;;;;;8.77;6.70;;;20.80;99.90;;;;;;5072446;28;20224;-79
2022/05/23 00:55:44;;;;;;;10.13;6.78;;;20.80;99.90;;;;;;5072444;28;20202;-80
2022/05/23 00:58:18;;;;;;;10.27;6.90;;;20.80;99.90;;;;;;5072589;28;20210;-74
2022/05/23 01:00:45;;;;;;;12.45;7.35;;;20.80;99.90;;;;;;5072036;28;20206;-75
2022/05/23 01:03:15;;;;;;;8.32;6.10;;;20.70;99.90;;;;;;5072147;28;20202;-79
2022/05/23 01:05:43;;;;;;;11.77;6.57;;;20.60;99.90;;;;;;5072009;28;20207;-79
2022/05/23 01:08:10;;;;;;;11.30;6.82;;;20.70;99.90;;;;;;5071917;28;20290;-79
2022/05/23 01:10:40;;;;;;;12.18;6.38;;;20.70;99.90;;;;;;5071819;28;20260;-76
2022/05/23 01:13:08;;;;;;;12.40;6.45;;;20.60;99.90;;;;;;5072171;28;20666;-76
2022/05/23 01:15:36;;;;;;;10.05;6.78;;;20.60;99.90;;;;;;5071465;28;20615;-75
2022/05/23 01:18:03;;;;;;;13.57;7.07;;;20.40;99.90;;;;;;5072260;28;20267;-78
2022/05/23 01:20:31;;;;;;;14.13;6.53;;;20.10;99.90;;;;;;5071955;28;20210;-80
2022/05/23 01:23:08;;;;;;;17.20;6.40;;;19.80;99.90;;;;;;5072031;28;20206;-67
2022/05/23 01:25:40;;;;;;;15.20;7.00;;;19.70;99.90;;;;;;5071634;28;20266;-73
2022/05/23 01:28:07;;;;;;;12.60;5.93;;;19.80;99.90;;;;;;5071837;28;20230;-74
2022/05/23 01:30:36;;;;;;;14.32;6.82;;;19.90;99.90;;;;;;5071407;28;20206;-74
2022/05/23 01:33:04;;;;;;;12.00;6.47;;;20.00;99.90;;;;;;5071966;28;20252;-72
2022/05/23 01:35:31;;;;;;;10.15;6.13;;;20.00;99.90;;;;;;5071549;28;20252;-75
2022/05/23 01:37:58;;;;;;;13.95;6.53;;;20.00;99.90;;;;;;5071827;28;20199;-74
2022/05/23 01:40:26;;;;;;;12.85;6.05;;;20.10;99.90;;;;;;5071172;28;20561;-73
2022/05/23 01:42:55;;;;;;;9.55;5.15;;;20.00;99.90;;;;;;5072221;28;20198;-74
2022/05/23 01:45:24;;;;;;;11.93;5.47;;;19.90;99.90;;;;;;5071935;28;20259;-74
2022/05/23 01:47:51;;;;;;;9.35;6.00;;;19.90;99.90;;;;;;5071746;28;20237;-74
2022/05/23 01:50:18;;;;;;;10.98;5.97;;;19.90;99.90;;;;;;5032750;28;1132344;-74
2022/05/23 01:52:45;;;;;;;8.25;4.68;;;20.10;99.90;;;;;;5072018;28;20206;-75
2022/05/23 01:55:12;;;;;;;8.77;5.15;;;20.10;99.90;;;;;;5072436;28;20197;-72
2022/05/23 01:57:39;;;;;;;10.98;6.60;;;20.10;99.90;;;;;;5072297;28;20264;-71
2022/05/23 02:02:54;;;;;;;9.45;5.30;;;19.90;99.90;;;;;;5072419;28;20273;-74
2022/05/23 02:05:21;;;;;;;9.48;5.00;;;19.70;99.90;;;;;;5072285;28;20210;-67
2022/05/23 02:07:48;;;;;;;8.32;4.53;;;19.70;99.90;;;;;;5072078;28;20287;-75
2022/05/23 02:10:15;;;;;;;6.50;4.35;;;19.70;99.90;;;;;;5072349;28;20202;-74
2022/05/23 02:12:42;;;;;;;10.60;4.90;;;20.00;99.90;;;;;;5071786;28;20720;-76
2022/05/23 02:15:12;;;;;;;5.00;3.88;;;19.90;99.90;;;;;;5071820;28;20569;-75
2022/05/23 02:17:39;;;;;;;6.50;3.88;;;19.90;99.90;;;;;;5071350;28;20244;-75
2022/05/23 02:20:08;;;;;;;5.75;3.58;;;19.80;99.90;;;;;;5071110;28;20751;-76
2022/05/23 02:22:35;;;;;;;10.73;5.07;;;19.70;99.90;;;;;;5071698;28;20210;-78
2022/05/23 02:25:02;;;;;;;6.63;4.40;;;19.60;99.90;;;;;;5072049;28;20202;-71
2022/05/23 02:27:30;;;;;;;7.90;4.03;;;19.60;99.90;;;;;;5071461;28;20240;-73
2022/05/23 02:29:57;;;;;;;9.45;4.00;;;19.60;99.90;;;;;;5071627;28;20198;-71
2022/05/23 02:32:26;;;;;;;10.23;4.45;;;19.60;99.90;;;;;;5071739;28;20202;-70
2022/05/23 02:34:53;;;;;;;9.00;3.63;;;19.60;99.90;;;;;;5071787;28;20576;-69
2022/05/23 02:37:20;;;;;;;6.63;4.20;;;19.80;99.90;;;;;;5071846;28;20236;-72
2022/05/23 02:39:47;;;;;;;7.20;3.65;;;20.00;99.90;;;;;;5071372;28;20202;-77
2022/05/23 02:42:14;;;;;;;5.10;3.50;;;19.90;99.90;;;;;;5071554;28;20210;-77
2022/05/23 02:44:42;;;;;;;13.10;4.00;;;19.80;99.90;;;;;;5070893;28;20679;-76
2022/05/23 02:47:09;;;;;;;5.95;3.25;;;19.80;99.90;;;;;;5071456;28;20628;-79
2022/05/23 02:49:38;;;;;;;7.97;3.80;;;19.80;99.90;;;;;;5071123;28;20210;-72
2022/05/23 02:52:05;;;;;;;6.15;3.33;;;19.60;99.90;;;;;;5071311;28;20202;-73
2022/05/23 02:54:32;;;;;;;3.65;2.78;;;19.50;99.90;;;;;;5071036;28;20198;-73
2022/05/23 02:57:00;;;;;;;4.65;3.10;;;19.50;99.90;;;;;;5071161;28;20202;-76
2022/05/23 02:59:27;;;;;;;5.45;2.60;;;19.60;99.90;;;;;;5070943;28;20242;-74
2022/05/23 03:04:39;;;;;;;5.68;2.05;;;19.70;99.90;;;;;;5070860;28;20204;-75
2022/05/23 03:07:06;;;;;;;7.07;2.30;;;19.60;99.90;;;;;;5071091;28;20268;-74
2022/05/23 03:09:33;;;;;;;5.25;2.60;;;19.50;99.90;;;;;;5070548;28;20284;-76
2022/05/23 03:12:00;;;;;;;5.75;2.63;;;19.40;99.90;;;;;;5070865;28;20202;-74
2022/05/23 03:14:28;;;;;;;5.68;3.22;;;19.50;99.90;;;;;;5070680;28;20206;-76
2022/05/23 03:17:00;;;;;;;5.78;3.08;;;19.50;99.90;;;;;;5071148;28;20202;-73
2022/05/23 03:19:27;;;;;;;5.28;2.72;;;19.50;99.90;;;;;;5070952;28;20214;-74
2022/05/23 03:27:25;;;;;;;4.57;2.58;;;19.30;99.90;;;;;;5070508;28;20579;-76
2022/05/23 03:29:52;;;;;;;2.78;2.03;;;19.20;99.90;;;;;;5080519;28;20205;-68
2022/05/23 03:32:20;;;;;;;4.72;2.08;;;19.10;99.90;;;;;;5078369;28;20206;-74
2022/05/23 03:34:47;;;;;;;5.05;2.05;;;19.10;99.90;;;;;;5090482;28;20201;-73
2022/05/23 03:37:16;;;;;;;5.50;2.55;;;19.10;99.90;;;;;;5084194;28;20718;-68
2022/05/23 03:39:43;;;;;;;5.50;2.40;;;19.30;99.90;;;;;;5090624;28;20213;-74
2022/05/23 03:42:10;;;;;;;3.55;2.78;;;19.30;99.90;;;;;;5090456;28;20209;-74
2022/05/23 03:44:37;;;;;;;6.72;2.45;;;19.40;99.90;;;;;;5090236;28;20201;-74
2022/05/23 03:47:04;;;;;;;5.95;2.45;;;19.50;99.90;;;;;;5090034;28;20669;-73
2022/05/23 03:49:32;;;;;;;4.28;2.03;;;19.40;99.90;;;;;;5088297;28;20233;-75
2022/05/23 03:51:59;;;;;;;3.78;2.20;;;19.40;99.90;;;;;;5090657;28;20277;-68
2022/05/23 03:54:28;;;;;;;5.65;2.65;;;19.40;99.90;;;;;;5089908;28;20204;-68
2022/05/23 03:56:59;;;;;;;5.93;2.80;;;19.30;99.90;;;;;;5090547;28;20213;-75
2022/05/23 03:59:26;;;;;;;3.65;2.00;;;19.30;99.90;;;;;;5090082;28;20583;-71
2022/05/23 04:01:55;;;;;;;3.83;2.50;;;19.40;99.90;;;;;;5090581;28;20553;-74
2022/05/23 04:04:23;;;;;;;6.72;2.97;;;19.30;99.90;;;;;;5090608;28;20236;-69
2022/05/23 04:06:50;;;;;;;7.97;3.42;;;19.30;99.90;;;;;;5090550;28;20237;-74
2022/05/23 04:09:18;;;;;;;4.03;2.45;;;19.40;99.90;;;;;;5090092;28;20716;-72
2022/05/23 04:11:47;;;;;;;6.40;3.60;;;19.20;99.90;;;;;;5089722;28;20244;-74
2022/05/23 04:14:14;;;;;;;3.78;2.67;;;19.10;99.90;;;;;;5090338;28;20205;-72
2022/05/23 04:16:45;;;;;;;5.95;3.05;;;19.00;99.90;;;;;;5089613;28;20670;-74
2022/05/23 04:19:13;;;;;;;9.95;6.53;;;18.90;99.90;;;;;;5089957;28;20676;-75
2022/05/23 04:21:41;;;;;;;11.73;9.80;;;18.90;99.90;;;;;;5089933;28;20669;-73
2022/05/23 04:24:08;;;;;;;16.98;12.68;;;18.90;99.90;;;;;;5086530;28;20205;-73
2022/05/23 04:26:35;;;;;;;15.15;13.25;;;19.00;99.90;;;;;;5089871;28;20202;-74
2022/05/23 04:29:06;;;;;;;11.05;10.15;;;19.10;99.90;;;;;;5089771;28;20229;-74
2022/05/23 04:31:33;;;;;;;12.68;11.55;;;18.90;99.90;;;;;;5089948;28;20288;-75
2022/05/23 04:36:44;;;;;;;23.25;18.27;;;18.90;99.90;;;;;;5089889;28;20208;-73
2022/05/23 04:39:11;;;;;;;24.95;19.17;;;18.90;99.90;;;;;;5089894;28;20239;-69
2022/05/23 04:41:39;;;;;;;54.03;34.17;;;18.90;99.90;;;;;;5089463;28;20706;-72
2022/05/23 04:44:07;;;;;;;29.92;19.85;;;19.00;99.90;;;;;;5092738;28;20259;-70
2022/05/23 04:46:34;;;;;;;12.07;4.97;;;18.90;99.90;;;;;;5093327;28;20664;-70
2022/05/23 04:51:46;;;;;;;5.38;3.13;;;18.60;99.90;;;;;;5093303;28;20204;-69
2022/05/23 04:54:13;;;;;;;3.42;2.60;;;18.50;99.90;;;;;;5093150;28;20287;-72
2022/05/23 04:56:40;;;;;;;5.50;3.25;;;18.40;99.90;;;;;;5093125;28;20739;-74
2022/05/23 04:59:08;;;;;;;3.65;2.90;;;18.60;99.90;;;;;;5093206;28;20205;-74
2022/05/23 05:01:35;;;;;;;6.93;3.92;;;18.60;99.90;;;;;;5093086;28;20202;-69
2022/05/23 05:04:02;;;;;;;7.70;3.97;;;18.60;99.90;;;;;;5093448;28;20803;-74
2022/05/23 05:06:29;;;;;;;6.50;3.00;;;18.60;99.90;;;;;;5092974;28;20201;-73
2022/05/23 05:08:56;;;;;;;6.55;3.55;;;18.70;99.90;;;;;;5092955;28;20630;-72
2022/05/23 05:11:23;;;;;;;7.57;4.68;;;18.60;99.90;;;;;;5093023;28;21081;-69
2022/05/23 05:13:50;;;;;;;5.35;3.65;;;18.70;99.90;;;;;;5093742;28;20275;-72
2022/05/23 05:16:23;;;;;;;5.40;3.58;;;18.80;99.90;;;;;;5093053;28;20205;-72
2022/05/23 05:18:50;;;;;;;4.97;4.03;;;18.80;99.90;;;;;;5093309;28;20209;-71
2022/05/23 05:21:17;;;;;;;5.47;3.72;;;18.60;99.90;;;;;;5092771;28;20204;-69
2022/05/23 05:23:44;;;;;;;6.63;3.85;;;18.60;99.90;;;;;;5092555;28;20262;-72
2022/05/23 05:26:11;;;;;;;4.35;3.90;;;18.60;99.90;;;;;;5093097;28;20202;-68
2022/05/23 05:28:38;;;;;;;7.93;4.35;;;18.60;99.90;;;;;;5092777;28;20229;-80
2022/05/23 05:31:14;;;;;;;10.75;4.15;;;18.50;99.90;;;;;;5092619;28;20657;-70
2022/05/23 05:33:47;;;;;;;6.45;3.50;;;18.40;99.90;;;;;;5092427;28;20604;-72
2022/05/23 05:36:18;;;;;;;11.15;4.63;;;18.50;99.90;;;;;;5092648;28;20219;-77
2022/05/23 05:38:50;;;;;;;9.57;4.35;;;18.40;99.90;;;;;;5092408;28;20266;-67
2022/05/23 05:41:21;;;;;;;5.15;3.53;;;18.40;99.90;;;;;;5092371;28;20202;-76
2022/05/23 05:43:56;;;;;;;7.85;3.75;;;18.40;99.90;;;;;;5092818;28;20202;-75
2022/05/23 05:46:28;;;;;;;7.25;4.63;;;18.40;99.90;;;;;;5092991;28;20198;-76
2022/05/23 05:48:59;;;;;;;9.95;6.03;;;18.40;99.90;;;;;;5091612;28;20247;-71
2022/05/23 05:51:27;;;;;;;16.80;5.05;;;18.50;99.90;;;;;;5091841;28;20198;-68
2022/05/23 05:53:54;;;;;;;10.00;4.07;;;18.50;99.90;;;;;;5090988;28;20204;-67
2022/05/23 05:56:21;;;;;;;9.52;3.92;;;18.60;99.90;;;;;;5092418;28;20247;-74
2022/05/23 05:58:49;;;;;;;8.57;3.90;;;18.60;99.90;;;;;;5092409;28;20318;-68
2022/05/23 06:01:15;;;;;;;9.85;4.72;;;18.50;99.90;;;;;;5092587;28;20201;-67
2022/05/23 06:03:42;;;;;;;9.95;4.28;;;18.60;99.90;;;;;;5092264;28;20247;-75
2022/05/23 06:11:54;;;;;;;8.00;3.92;;;18.80;99.90;;;;;;5030332;28;20206;-66
2022/05/23 06:14:20;;;;;;;7.43;3.58;;;18.80;99.90;;;;;;5030418;28;20262;-68
2022/05/23 06:16:47;;;;;;;10.93;3.83;;;18.70;99.90;;;;;;5056742;28;20262;-72
2022/05/23 06:19:15;;;;;;;3.70;3.22;;;18.70;99.90;;;;;;5092282;28;20692;-73
2022/05/23 06:21:43;;;;;;;5.53;3.03;;;18.70;99.90;;;;;;5091615;28;20201;-67
2022/05/23 06:24:10;;;;;;;11.02;3.50;;;18.60;99.90;;;;;;5092268;28;20205;-75
2022/05/23 06:26:37;;;;;;;8.13;3.70;;;18.70;99.90;;;;;;5089195;28;20201;-72
2022/05/23 06:29:04;;;;;;;8.77;3.25;;;18.70;99.90;;;;;;5087166;28;20276;-71
2022/05/23 06:31:31;;;;;;;7.55;3.55;;;19.00;99.90;;;;;;5081128;28;20288;-69
2022/05/23 06:33:58;;;;;;;6.75;3.53;;;19.10;99.90;;;;;;5091389;28;20201;-70
2022/05/23 06:36:25;;;;;;;9.88;3.53;;;19.10;99.90;;;;;;5090956;28;20605;-71
2022/05/23 06:38:53;;;;;;;8.07;4.07;;;18.80;99.90;;;;;;5091639;28;20205;-70
2022/05/23 06:41:20;;;;;;;7.22;3.30;;;18.70;99.90;;;;;;5092057;28;20254;-70
2022/05/23 06:43:47;;;;;;;6.43;3.50;;;18.40;99.90;;;;;;5091214;28;20209;-70
2022/05/23 06:46:15;;;;;;;6.38;4.03;;;18.40;99.90;;;;;;5072179;28;20678;-71
2022/05/23 06:48:43;;;;;;;5.88;2.95;;;18.30;99.90;;;;;;5070746;28;20698;-71
2022/05/23 06:51:10;;;;;;;8.55;3.95;;;18.20;99.90;;;;;;5070975;28;20196;-71
2022/05/23 06:53:38;;;;;;;7.43;3.38;;;18.30;99.90;;;;;;5071279;28;20241;-71
2022/05/23 06:56:06;;;;;;;10.38;3.33;;;18.40;99.90;;;;;;5071310;28;20209;-71
2022/05/23 06:58:33;;;;;;;7.43;3.17;;;18.20;99.90;;;;;;5070947;28;20743;-70
2022/05/23 07:01:00;;;;;;;6.13;3.58;;;18.20;99.90;;;;;;5080507;28;20281;-70
2022/05/23 07:03:27;;;;;;;15.25;3.63;;;18.20;99.90;;;;;;5090140;28;20205;-69
2022/05/23 07:14:09;;;;;;;9.60;4.38;;;18.40;99.90;;;;;;5090801;28;20621;-70
2022/05/23 07:16:36;;;;;;;5.72;3.70;;;18.40;99.90;;;;;;5090138;28;20258;-69
2022/05/23 07:19:04;;;;;;;7.60;3.65;;;18.60;99.90;;;;;;5090888;28;20213;-69
2022/05/23 07:21:32;;;;;;;5.45;3.80;;;18.50;99.90;;;;;;5090398;28;20205;-72
2022/05/23 07:23:59;;;;;;;7.45;3.25;;;18.50;99.90;;;;;;5086581;28;20214;-70
2022/05/23 07:26:28;;;;;;;5.55;2.90;;;18.50;99.90;;;;;;5081734;28;20202;-71
2022/05/23 07:28:55;;;;;;;4.70;3.28;;;18.60;99.90;;;;;;5086884;28;20241;-72
2022/05/23 07:31:22;;;;;;;10.18;3.53;;;18.40;99.90;;;;;;5085361;28;20571;-71
2022/05/23 07:33:49;;;;;;;5.97;3.55;;;18.30;99.90;;;;;;5090140;28;20296;-71
2022/05/23 07:36:17;;;;;;;8.55;3.28;;;18.60;99.90;;;;;;5089488;28;20217;-74
2022/05/23 07:38:44;;;;;;;9.82;4.18;;;18.80;99.90;;;;;;5089807;28;20214;-71
2022/05/23 07:41:13;;;;;;;8.82;3.58;;;18.90;99.90;;;;;;5087868;28;20206;-71
2022/05/23 07:43:42;;;;;;;5.85;4.15;;;18.80;99.90;;;;;;5089820;28;20564;-70
2022/05/23 07:46:13;;;;;;;10.48;3.30;;;18.80;99.90;;;;;;5086284;28;20266;-71
2022/05/23 07:48:41;;;;;;;7.95;3.63;;;18.70;99.90;;;;;;5089599;28;20293;-69
2022/05/23 07:51:09;;;;;;;6.97;3.05;;;18.50;99.90;;;;;;5090400;28;20209;-71
2022/05/23 08:01:51;;;;;;;7.10;3.17;;;18.40;99.90;;;;;;5090527;28;20250;-73
2022/05/23 08:04:19;;;;;;;8.60;3.28;;;18.50;99.90;;;;;;5090392;28;20201;-70
2022/05/23 08:06:46;;;;;;;8.43;3.00;;;18.60;99.90;;;;;;5090188;28;20217;-70
2022/05/23 08:09:13;;;;;;;6.85;3.47;;;18.70;99.90;;;;;;5083602;28;20306;-70
2022/05/23 08:11:44;;;;;;;7.40;3.45;;;18.40;99.90;;;;;;5085747;28;20677;-72
2022/05/23 08:14:13;;;;;;;6.75;3.47;;;18.40;99.90;;;;;;5088077;28;20244;-72
2022/05/23 08:16:40;;;;;;;9.18;3.72;;;18.40;99.90;;;;;;5079975;28;20259;-72
2022/05/23 08:19:08;;;;;;;5.85;3.20;;;18.30;99.90;;;;;;5077657;28;20673;-72
2022/05/23 08:21:36;;;;;;;8.95;3.38;;;18.30;99.90;;;;;;5093762;28;20581;-70
2022/05/23 08:24:03;;;;;;;7.88;3.53;;;18.40;99.90;;;;;;5085373;28;20206;-72
2022/05/23 08:26:30;;;;;;;5.75;3.90;;;18.50;99.90;;;;;;5092534;28;20657;-74
2022/05/23 08:28:57;;;;;;;8.32;3.55;;;18.60;99.90;;;;;;5093717;28;20610;-74
2022/05/23 08:31:25;;;;;;;7.35;3.72;;;18.70;99.90;;;;;;5094779;28;20205;-74
2022/05/23 08:33:52;;;;;;;7.60;3.13;;;18.90;99.90;;;;;;5088363;28;20263;-75
2022/05/23 08:36:19;;;;;;;7.20;2.40;;;18.70;99.90;;;;;;5074176;28;20206;-73
2022/05/23 08:38:46;;;;;;;6.30;2.85;;;18.90;99.90;;;;;;5079068;28;20213;-73
2022/05/23 08:41:19;;;;;;;3.42;2.38;;;18.70;99.90;;;;;;5094149;28;20292;-75
2022/05/23 08:43:52;;;;;;;5.15;3.42;;;18.60;99.90;;;;;;5093562;28;20205;-74
2022/05/23 08:46:35;;;;;;;6.43;4.68;;;18.90;99.90;;;;;;5093950;28;20660;-74
2022/05/23 08:49:09;;;;;;;9.32;4.72;;;19.30;99.90;;;;;;5093825;28;20213;-75
2022/05/23 08:51:42;;;;;;;3.55;3.25;;;19.30;99.90;;;;;;5093634;28;20210;-74
2022/05/23 08:54:18;;;;;;;7.47;2.88;;;19.10;99.90;;;;;;5093758;28;20205;-74
2022/05/23 08:56:51;;;;;;;8.07;3.25;;;19.10;99.90;;;;;;5093372;28;20654;-74
2022/05/23 08:59:25;;;;;;;3.42;2.20;;;19.10;99.90;;;;;;5093620;28;20246;-75
2022/05/23 09:01:57;;;;;;;4.40;2.45;;;19.10;99.90;;;;;;5094008;28;20205;-75
2022/05/23 09:04:38;;;;;;;4.82;2.85;;;19.10;99.90;;;;;;5093726;28;20280;-75
2022/05/23 09:07:08;;;;;;;5.75;2.70;;;18.90;99.90;;;;;;5093531;28;20296;-74
2022/05/23 09:09:37;;;;;;;4.18;3.15;;;19.10;99.90;;;;;;5093222;28;20225;-69
2022/05/23 09:12:10;;;;;;;3.47;2.30;;;19.00;99.90;;;;;;5093337;28;20589;-75
2022/05/23 09:14:38;;;;;;;4.70;2.72;;;18.90;99.90;;;;;;5093038;28;20284;-74
2022/05/23 09:17:10;;;;;;;9.27;3.97;;;18.70;99.90;;;;;;5093735;28;20231;-73
2022/05/23 09:19:43;;;;;;;6.18;3.25;;;18.80;99.90;;;;;;5071990;28;20259;-74
2022/05/23 09:22:13;;;;;;;2.28;2.08;;;18.90;99.90;;;;;;5073055;28;20202;-75
2022/05/23 09:24:43;;;;;;;4.35;1.70;;;18.80;99.90;;;;;;5072458;28;20206;-70
2022/05/23 09:27:16;;;;;;;7.18;2.92;;;18.90;99.90;;;;;;5072924;28;20272;-75
2022/05/23 09:29:43;;;;;;;6.25;2.80;;;19.20;99.90;;;;;;5072197;28;20234;-74
2022/05/23 09:32:13;;;;;;;3.88;2.28;;;19.30;99.90;;;;;;5073075;28;20202;-77
2022/05/23 09:34:50;;;;;;;3.83;2.28;;;19.50;99.90;;;;;;5072428;28;20198;-72
2022/05/23 09:37:21;;;;;;;4.95;2.80;;;19.60;99.90;;;;;;5072821;28;20206;-75
2022/05/23 09:39:54;;;;;;;6.53;2.08;;;19.90;99.90;;;;;;5072705;28;20206;-75
2022/05/23 09:48:10;;;;;;;3.15;2.20;;;19.80;99.90;;;;;;5082733;28;20205;-74
2022/05/23 09:50:41;;;;;;;6.28;2.80;;;19.70;99.90;;;;;;5092187;28;20728;-73
2022/05/23 09:53:29;;;;;;;7.65;2.72;;;19.70;99.90;;;;;;5074092;28;20210;-72
2022/05/23 09:56:27;;;;;;;4.05;2.38;;;19.90;99.90;;;;;;5072484;28;20233;-70
2022/05/23 09:58:56;;;;;;;3.35;2.20;;;20.30;99.90;;;;;;5074097;28;20275;-73
2022/05/23 10:01:27;;;;;;;6.47;2.53;;;20.30;99.90;;;;;;5092917;28;20296;-74
2022/05/23 10:03:54;;;;;;;4.30;2.20;;;20.50;99.90;;;;;;5092619;28;20227;-73
2022/05/23 10:06:34;;;;;;;5.00;3.08;;;20.60;99.90;;;;;;5092795;28;20247;-73
2022/05/23 10:09:01;;;;;;;3.90;2.15;;;20.90;99.90;;;;;;5092452;28;20250;-75
2022/05/23 10:11:33;;;;;;;3.58;1.98;;;21.30;99.90;;;;;;5092050;28;20241;-73
2022/05/23 10:14:01;;;;;;;6.60;3.03;;;21.10;99.90;;;;;;5086916;28;20206;-75
2022/05/23 10:16:31;;;;;;;5.18;1.83;;;21.10;99.90;;;;;;5083062;28;20254;-73
2022/05/23 10:19:01;;;;;;;3.08;1.77;;;20.90;99.90;;;;;;5092324;28;20198;-73
2022/05/23 10:21:32;;;;;;;8.02;2.85;;;20.60;99.90;;;;;;5071594;28;20209;-71
2022/05/23 10:24:07;;;;;;;4.88;2.10;;;20.50;99.90;;;;;;5071765;28;20675;-72
2022/05/23 10:26:48;;;;;;;4.72;2.22;;;20.20;99.90;;;;;;5071196;28;20206;-73
2022/05/23 10:29:21;;;;;;;4.65;2.47;;;20.50;99.90;;;;;;5071698;28;20292;-72
2022/05/23 10:31:52;;;;;;;7.05;3.08;;;20.30;99.90;;;;;;5071549;28;20234;-73
2022/05/23 10:34:34;;;;;;;4.50;2.10;;;20.10;99.90;;;;;;5072073;28;20202;-71
2022/05/23 10:37:06;;;;;;;5.40;2.45;;;19.90;99.90;;;;;;5071505;28;20228;-72
2022/05/23 10:42:30;;;;;;;8.00;2.30;;;19.90;99.90;;;;;;5071207;28;20205;-71
2022/05/23 10:45:14;;;;;;;5.18;2.30;;;20.00;99.90;;;;;;5071380;28;20662;-72
2022/05/23 10:48:03;;;;;;;6.70;2.45;;;20.00;99.90;;;;;;5070946;28;20681;-71
2022/05/23 10:50:37;;;;;;;5.75;2.10;;;20.20;99.90;;;;;;5070767;28;20238;-74
2022/05/23 10:53:11;;;;;;;6.25;2.22;;;20.10;99.90;;;;;;5071481;28;20205;-71
2022/05/23 10:55:45;;;;;;;4.22;1.90;;;20.20;99.90;;;;;;5070870;28;20205;-71
2022/05/23 10:58:29;;;;;;;4.65;1.90;;;20.20;99.90;;;;;;5073706;28;21159;-71
2022/05/23 11:01:04;;;;;;;1.83;1.70;;;20.00;99.90;;;;;;5070977;28;20198;-71
2022/05/23 11:03:37;;;;;;;4.88;2.58;;;19.50;99.90;;;;;;5070599;28;20262;-71
2022/05/23 11:06:13;;;;;;;10.80;2.05;;;19.30;99.90;;;;;;5073704;28;20210;-69
2022/05/23 11:09:02;;;;;;;8.57;1.88;;;19.40;99.90;;;;;;5081905;28;20668;-70
2022/05/23 11:11:43;;;;;;;2.95;1.90;;;19.60;99.90;;;;;;5078092;28;20221;-72
2022/05/23 11:14:21;;;;;;;5.68;1.70;;;19.70;99.90;;;;;;5090775;28;20258;-72
2022/05/23 11:16:59;;;;;;;2.85;2.20;;;19.50;99.90;;;;;;5090747;28;20205;-72
2022/05/23 11:19:32;;;;;;;5.25;2.92;;;19.20;99.90;;;;;;5090551;28;20197;-71
2022/05/23 11:22:10;;;;;;;3.60;1.83;;;18.90;99.90;;;;;;5090005;28;20260;-72
2022/05/23 11:24:45;;;;;;;3.53;1.85;;;18.90;99.90;;;;;;5082483;28;20201;-73
2022/05/23 11:35:49;;;;;;;5.68;1.83;;;20.00;99.90;;;;;;5090107;28;20307;-71
2022/05/23 11:38:16;;;;;;;5.70;1.80;;;20.00;99.90;;;;;;5090504;28;20209;-72
2022/05/23 11:41:01;;;;;;;9.57;2.70;;;19.70;99.90;;;;;;5089850;28;20221;-72
2022/05/23 11:43:29;;;;;;;6.90;2.03;;;19.50;99.90;;;;;;5089759;28;20225;-72
2022/05/23 11:45:59;;;;;;;4.68;1.90;;;19.80;99.90;;;;;;5090416;28;20205;-72
2022/05/23 11:48:55;;;;;;;7.55;2.33;;;20.30;99.90;;;;;;5090495;28;20337;-72
2022/05/23 11:51:41;;;;;;;7.55;2.50;;;21.00;99.90;;;;;;5087237;28;20286;-72
2022/05/23 11:54:34;;;;;;;11.63;2.58;;;21.30;99.90;;;;;;5095011;28;20280;-72
2022/05/23 11:57:15;;;;;;;4.15;1.83;;;20.90;99.90;;;;;;5074079;28;20205;-72
2022/05/23 12:00:24;;;;;;;3.47;1.92;;;20.40;99.90;;;;;;5074051;28;20610;-72
2022/05/23 12:03:11;;;;;;;6.43;1.80;;;20.10;99.90;;;;;;5051063;28;20251;-72
2022/05/23 12:05:39;;;;;;;5.28;2.72;;;19.70;99.90;;;;;;5074264;28;20206;-71
2022/05/23 12:08:22;;;;;;;5.57;1.95;;;19.50;99.90;;;;;;5074674;28;20242;-71
2022/05/23 12:11:01;;;;;;;7.47;2.78;;;19.50;99.90;;;;;;5074383;28;20833;-71
2022/05/23 12:13:40;;;;;;;9.55;3.92;;;19.50;99.90;;;;;;5073986;28;20209;-72
2022/05/23 12:16:47;;;;;;;4.80;2.83;;;19.50;99.90;;;;;;5074410;28;20208;-71
2022/05/23 12:19:32;;;;;;;5.65;2.78;;;19.60;99.90;;;;;;5074256;28;20205;-70
2022/05/23 12:22:22;;;;;;;7.47;2.80;;;19.40;99.90;;;;;;5074340;28;20259;-72
2022/05/23 12:25:25;;;;;;;5.18;2.10;;;19.50;99.90;;;;;;5074177;28;20202;-71
2022/05/23 12:28:26;;;;;;;9.63;2.67;;;19.50;99.90;;;;;;5074554;28;20638;-71
2022/05/23 12:31:14;;;;;;;12.23;2.83;;;19.40;99.90;;;;;;5074150;28;20234;-71
2022/05/23 12:33:51;;;;;;;6.57;2.00;;;19.40;99.90;;;;;;5073587;28;20732;-70
2022/05/23 12:36:25;;;;;;;6.85;3.63;;;19.40;99.90;;;;;;5073850;28;20210;-71
2022/05/23 12:39:21;;;;;;;5.85;2.03;;;19.40;99.90;;;;;;5074018;28;20254;-70
2022/05/23 12:42:02;;;;;;;5.78;1.98;;;19.20;99.90;;;;;;5070328;28;20653;-70
2022/05/23 12:45:08;;;;;;;5.90;2.00;;;19.20;99.90;;;;;;5073551;28;20206;-71
2022/05/23 12:48:08;;;;;;;6.22;2.40;;;19.50;99.90;;;;;;5044194;28;20603;-70
2022/05/23 12:54:07;;;;;;;4.53;2.50;;;19.90;99.90;;;;;;5070058;28;20275;-70
2022/05/23 12:57:07;;;;;;;6.07;2.70;;;20.00;99.90;;;;;;5061835;28;20206;-70
2022/05/23 12:59:51;;;;;;;5.65;2.10;;;20.20;99.90;;;;;;5070623;28;20206;-71
2022/05/23 13:02:25;;;;;;;4.07;2.63;;;20.40;99.90;;;;;;5069901;28;20205;-70
2022/05/23 13:04:58;;;;;;;8.43;3.17;;;20.80;99.90;;;;;;5070541;28;20559;-70
2022/05/23 13:07:29;;;;;;;3.78;1.52;;;21.00;99.90;;;;;;5070877;28;20634;-70
2022/05/23 13:10:02;;;;;;;7.75;3.22;;;21.30;99.90;;;;;;5071312;28;20260;-71
2022/05/23 13:12:36;;;;;;;5.63;2.53;;;21.70;99.90;;;;;;5070713;28;20635;-71
2022/05/23 13:15:04;;;;;;;4.90;2.13;;;22.00;99.90;;;;;;5071118;28;20202;-71
2022/05/23 13:17:37;;;;;;;6.25;2.47;;;22.10;99.90;;;;;;5070757;28;20214;-71
2022/05/23 13:23:01;;;;;;;7.43;2.13;;;22.10;99.90;;;;;;5071058;28;20315;-71
2022/05/23 13:25:32;;;;;;;4.47;1.80;;;22.40;99.90;;;;;;5072360;28;20210;-71
2022/05/23 13:28:00;;;;;;;3.72;2.10;;;22.50;99.90;;;;;;5073172;28;20624;-71
2022/05/23 13:30:30;;;;;;;3.60;1.35;;;22.40;99.90;;;;;;5072613;28;20198;-71
2022/05/23 13:33:02;;;;;;;2.88;1.35;;;22.10;99.90;;;;;;5072933;28;20568;-71
2022/05/23 13:35:30;;;;;;;12.05;2.40;;;21.70;99.90;;;;;;5072567;28;20205;-71
2022/05/23 13:37:57;;;;;;;5.57;2.25;;;21.50;99.90;;;;;;5072858;28;20283;-71
2022/05/23 13:40:27;;;;;;;3.00;1.20;;;21.20;99.90;;;;;;5072978;28;20210;-71
2022/05/23 13:45:59;;;;;;;4.35;1.67;;;21.10;99.90;;;;;;5088533;28;20558;-71
2022/05/23 13:48:32;;;;;;;8.07;2.20;;;20.90;99.90;;;;;;5087720;28;20205;-71
2022/05/23 13:51:03;;;;;;;3.20;1.02;;;21.00;99.90;;;;;;5087975;28;20556;-71
2022/05/23 13:53:35;;;;;;;4.25;1.52;;;21.10;99.90;;;;;;5087815;28;20197;-71
2022/05/23 13:56:03;;;;;;;4.82;1.95;;;21.10;99.90;;;;;;5085784;28;20233;-71
2022/05/23 13:58:33;;;;;;;7.00;1.92;;;21.10;99.90;;;;;;5087405;28;20673;-71
2022/05/23 14:01:06;;;;;;;6.63;2.97;;;21.10;99.90;;;;;;5088213;28;20587;-71
2022/05/23 14:03:35;;;;;;;3.00;1.40;;;21.30;99.90;;;;;;5086690;28;20241;-70
2022/05/23 14:06:06;;;;;;;2.72;1.92;;;21.50;99.90;;;;;;5077905;28;20225;-71
2022/05/23 14:08:38;;;;;;;3.50;1.60;;;22.00;99.90;;;;;;5080815;28;20658;-71
2022/05/23 14:11:08;;;;;;;3.90;1.60;;;22.30;99.90;;;;;;5082284;28;20726;-70
2022/05/23 14:13:35;;;;;;;8.50;2.20;;;22.50;99.90;;;;;;5087004;28;20201;-71